^^
Datos históricos de la estación: Murcia-Puente Tocinos
Diario Informe para Octubre 24, 2019 Unidades:  Ingés    Métrico   Ambas
Diario Semanal Mensual Anual
  Máxima: Mínima: Promedio:
Temperatura: 69.8 °F 53.1 °F 61.9 °F
Punto de rocio: 49.6 °F 44.8 °F 47.3 °F
Humedad: 81% 41.5% 60%
Velocidad viento: 10.7mph 2mph 5.2mph
Racha viento: 23.5mph - -
Viento- - SO
Presión: 30.2 in 29.9 in -
Precipitación: 0 in    
 
 
Tabla de datos para Octubre 24, 2019
Hora Temperatura Punto de rocio Presión Viento Velocidad viento Racha viento Humedad Intensidad lluvia(por hora) Nubes
00:04 58.5 °F 48.2 °F 29.9 in SSO 4.8 mph 8 mph 68.7% 0 in
00:09 58.6 °F 48 °F 29.9 in SO 4.7 mph 7.4 mph 68% 0 in
00:14 58.6 °F 47.8 °F 29.9 in OSO 4.4 mph 9.2 mph 67.2% 0 in
00:19 58.6 °F 47.7 °F 29.9 in OSO 4.3 mph 8.5 mph 66.7% 0 in
00:24 58.8 °F 47.5 °F 29.9 in SO 4.6 mph 9 mph 66% 0 in
00:29 58.8 °F 47.5 °F 29.9 in SO 4.7 mph 8.7 mph 66% 0 in
00:34 58.8 °F 47.5 °F 29.9 in SSO 4.7 mph 9.2 mph 65.9% 0 in
00:39 58.8 °F 47.7 °F 29.9 in Sur 4.7 mph 9 mph 66.3% 0 in
00:44 58.6 °F 47.8 °F 29.9 in Sur 4.4 mph 8 mph 67.2% 0 in
00:49 58.5 °F 47.8 °F 29.9 in SSO 4.3 mph 6.9 mph 67.9% 0 in
00:54 58.5 °F 47.8 °F 29.9 in SSO 4.1 mph 7 mph 68% 0 in
00:59 58.5 °F 47.8 °F 29.9 in Sur 4 mph 6 mph 68.2% 0 in
01:04 58.3 °F 48.2 °F 29.9 in Sur 2.9 mph 4.3 mph 69.1% 0 in
01:09 58.1 °F 48.6 °F 29.9 in SE 2.4 mph 5 mph 70.8% 0 in
01:14 57.7 °F 48.9 °F 29.9 in SE 2.4 mph 5 mph 72.4% 0 in
01:19 57.4 °F 48.9 °F 29.9 in SSE 2.4 mph 5.9 mph 73.3% 0 in
01:24 57 °F 48.9 °F 29.9 in Sur 3 mph 6 mph 74% 0 in
01:29 57 °F 48.9 °F 29.9 in Sur 3.6 mph 5.2 mph 74.4% 0 in
01:34 57 °F 48.9 °F 29.9 in Sur 3.6 mph 5 mph 74.1% 0 in
01:39 57 °F 48.7 °F 29.9 in Sur 3.6 mph 5 mph 74% 0 in
01:44 57 °F 48.9 °F 29.9 in SSO 3.1 mph 5 mph 74% 0 in
01:49 57.2 °F 48.7 °F 29.9 in Sur 2.9 mph 5 mph 73.3% 0 in
01:54 57.4 °F 48.7 °F 29.9 in Sur 2.9 mph 5 mph 73% 0 in
01:59 57.4 °F 48.9 °F 29.9 in SSE 2.9 mph 3.6 mph 73.2% 0 in
02:04 57.4 °F 48.9 °F 29.9 in Sur 2.2 mph 4.6 mph 73.5% 0 in
02:09 57.4 °F 48.7 °F 29.9 in Sur 2 mph 5.2 mph 73% 0 in
02:14 57.4 °F 48.6 °F 29.9 in OSO 2.6 mph 5.2 mph 72.4% 0 in
02:19 57.4 °F 48.7 °F 29.9 in SO 2.9 mph 5 mph 72.6% 0 in
02:24 57.4 °F 48.4 °F 29.9 in SSO 2.5 mph 5 mph 72.1% 0 in
02:29 57.4 °F 48.4 °F 29.9 in SSO 2.4 mph 5.8 mph 72% 0 in
02:34 57.4 °F 48.4 °F 29.9 in Sur 3.2 mph 6 mph 72% 0 in
02:39 57.4 °F 48.4 °F 29.9 in Sur 3.6 mph 5 mph 72% 0 in
02:44 57.4 °F 48.4 °F 29.9 in Sur 3.1 mph 5.8 mph 72% 0 in
02:49 57 °F 48.4 °F 29.9 in Sur 2.9 mph 6 mph 72.9% 0 in
02:54 57 °F 48.4 °F 29.9 in SSO 3.6 mph 6 mph 73% 0 in
02:59 56.8 °F 48 °F 29.9 in SSO 4 mph 6.2 mph 72.1% 0 in
03:04 57 °F 48 °F 29.9 in SSO 4.2 mph 6 mph 72% 0 in
03:09 57 °F 48 °F 29.9 in SSO 4.3 mph 6 mph 72% 0 in
03:14 56.8 °F 48 °F 29.9 in SSO 3.9 mph 6 mph 72% 0 in
03:19 56.8 °F 47.8 °F 29.9 in SO 3.6 mph 5 mph 72% 0 in
03:24 56.8 °F 47.8 °F 29.9 in SSO 3.2 mph 5.4 mph 72% 0 in
03:29 56.8 °F 47.8 °F 29.9 in SSO 3.1 mph 6 mph 72% 0 in
03:34 56.7 °F 47.7 °F 29.9 in SSO 3.7 mph 6.4 mph 72% 0 in
03:39 56.7 °F 47.7 °F 29.9 in SSO 4 mph 7 mph 72% 0 in
03:44 56.7 °F 47.7 °F 29.9 in SSO 4.2 mph 7.4 mph 72% 0 in
03:49 56.5 °F 47.7 °F 29.9 in SSO 4.3 mph 9.2 mph 72% 0 in
03:54 56.5 °F 47.7 °F 29.9 in SSO 4.9 mph 9 mph 72% 0 in
03:59 56.5 °F 47.3 °F 29.9 in SSO 5.2 mph 9.2 mph 71.1% 0 in
04:04 56.5 °F 46.9 °F 29.9 in SO 5.2 mph 9 mph 70.2% 0 in
04:09 56.7 °F 46.9 °F 29.9 in SO 5.2 mph 9.2 mph 70% 0 in
04:14 56.7 °F 46.9 °F 29.9 in SO 4.8 mph 9 mph 70% 0 in
04:19 56.7 °F 46.9 °F 29.9 in SO 4.7 mph 8 mph 70% 0 in
04:24 56.5 °F 46.8 °F 29.9 in SSO 4.4 mph 8.1 mph 70.1% 0 in
04:29 56.5 °F 47.1 °F 29.9 in SSO 4.3 mph 9.7 mph 71% 0 in
04:34 56.1 °F 47.1 °F 29.9 in SSO 5.4 mph 10 mph 71.8% 0 in
04:39 55.9 °F 47.1 °F 29.9 in SSO 5.9 mph 9 mph 72.5% 0 in
04:44 55.8 °F 47.1 °F 29.9 in SSO 5.4 mph 8.1 mph 73% 0 in
04:49 55.8 °F 47.1 °F 29.9 in SSO 5.2 mph 8.1 mph 72.9% 0 in
04:54 55.8 °F 46.9 °F 29.9 in SSO 5.2 mph 9.7 mph 72% 0 in
04:59 55.9 °F 46.8 °F 29.9 in SSO 5.2 mph 10 mph 71.6% 0 in
05:04 55.9 °F 46.9 °F 29.9 in SSO 5.3 mph 9 mph 71.6% 0 in
05:09 55.9 °F 46.9 °F 29.9 in SO 5.4 mph 8.5 mph 72% 0 in
05:14 55.8 °F 46.9 °F 29.9 in SO 5 mph 9 mph 72.2% 0 in
05:19 55.6 °F 47.1 °F 29.9 in SO 4.7 mph 7 mph 73% 0 in
05:24 55.2 °F 46.8 °F 29.9 in SO 4.2 mph 7 mph 73.3% 0 in
05:29 55.2 °F 47.1 °F 29.9 in SSO 4 mph 6 mph 74% 0 in
05:34 55 °F 46.9 °F 29.9 in SSO 3.7 mph 8.1 mph 74% 0 in
05:39 55 °F 46.9 °F 29.9 in SSO 3.6 mph 8.1 mph 74.1% 0 in
05:44 55 °F 47.3 °F 29.9 in SO 4.7 mph 8 mph 75% 0 in
05:49 55 °F 47.3 °F 29.9 in SO 5.2 mph 7 mph 75% 0 in
05:54 55 °F 47.3 °F 29.9 in SO 4.4 mph 6 mph 75% 0 in
05:59 55 °F 47.3 °F 29.9 in SO 4 mph 6.2 mph 75% 0 in
06:04 55 °F 47.5 °F 29.9 in SSO 3.7 mph 6 mph 75.4% 0 in
06:09 55.2 °F 47.5 °F 29.9 in SSO 3.6 mph 7.4 mph 75% 0 in
06:14 55.2 °F 47.5 °F 29.9 in Sur 4 mph 7 mph 75% 0 in
06:19 55.2 °F 47.5 °F 29.9 in SSO 4.3 mph 7 mph 75% 0 in
06:24 55.2 °F 47.5 °F 29.9 in SSO 3.9 mph 8.1 mph 75% 0 in
06:29 55.2 °F 47.5 °F 29.9 in SSO 3.6 mph 8 mph 75% 0 in
06:34 55.2 °F 47.5 °F 29.9 in SSO 4.3 mph 8.1 mph 75% 0 in
06:39 55.2 °F 47.5 °F 29.9 in SSO 4.7 mph 8.5 mph 75% 0 in
06:44 55.2 °F 47.5 °F 29.9 in SSO 5.2 mph 9.7 mph 75% 0 in
06:49 55.2 °F 47.3 °F 29.9 in SO 5.4 mph 10.4 mph 75% 0 in
06:54 55 °F 47.5 °F 29.9 in OSO 5.7 mph 10 mph 75.8% 0 in
06:59 54.9 °F 47.5 °F 29.9 in SO 5.9 mph 8.5 mph 76.5% 0 in
07:04 54.7 °F 47.5 °F 29.9 in SO 5.4 mph 9 mph 77% 0 in
07:09 54.3 °F 47.5 °F 29.9 in SSO 5.2 mph 9 mph 77.7% 0 in
07:14 54.1 °F 47.5 °F 29.9 in SSO 5.7 mph 9.7 mph 78% 0 in
07:19 54.1 °F 47.3 °F 29.9 in SSO 5.9 mph 10 mph 78% 0 in
07:24 54 °F 47.3 °F 29.9 in SSO 5.9 mph 11.2 mph 78% 0 in
07:29 54 °F 47.3 °F 29.9 in SSO 5.9 mph 12 mph 78.2% 0 in
07:34 54 °F 47.7 °F 29.9 in SO 6.1 mph 12 mph 79% 0 in
07:39 54 °F 47.7 °F 29.9 in SO 6.2 mph 10 mph 79% 0 in
07:44 54 °F 47.5 °F 29.9 in SO 4.9 mph 8.5 mph 78.7% 0 in
07:49 54 °F 47.3 °F 29.9 in OSO 4.3 mph 9 mph 78% 0 in
07:54 54 °F 47.3 °F 29.9 in OSO 4.6 mph 8.1 mph 78% 0 in
07:59 54 °F 47.3 °F 29.9 in SO 4.7 mph 8.5 mph 78.1% 0 in
08:04 54 °F 47.7 °F 29.9 in OSO 3.9 mph 9 mph 79% 0 in
08:09 54 °F 47.7 °F 29.9 in SSO 3.6 mph 6 mph 79% 0 in
08:14 54 °F 47.7 °F 29.9 in Sur 3.1 mph 6.9 mph 79% 0 in
08:19 53.8 °F 47.5 °F 29.9 in SSE 2.9 mph 7 mph 79% 0 in
08:24 53.4 °F 47.3 °F 29.9 in SSE 3.7 mph 8.1 mph 79.6% 0 in
08:29 53.2 °F 47.3 °F 29.9 in SSE 4 mph 9.2 mph 80.1% 0 in
08:34 53.1 °F 47.5 °F 29.9 in SSE 5.2 mph 9 mph 81% 0 in
08:39 53.1 °F 47.5 °F 30 in SSE 5.9 mph 9 mph 81% 0 in
08:44 53.2 °F 47.7 °F 30 in SSE 5.6 mph 9 mph 81% 0 in
08:49 53.4 °F 47.5 °F 30 in SSE 5.4 mph 7 mph 80.4% 0 in
08:54 53.6 °F 47.7 °F 30 in SSE 4.5 mph 6.2 mph 80% 0 in
08:59 54 °F 47.7 °F 30 in SSE 4 mph 6 mph 79.2% 0 in
09:04 54.1 °F 47.8 °F 30 in SE 4 mph 6 mph 79% 0 in
09:09 54.5 °F 48 °F 30 in SE 4 mph 6 mph 78.3% 0 in
09:14 54.9 °F 48 °F 30 in SE 3.4 mph 6 mph 78% 0 in
09:19 54.9 °F 48 °F 30 in SE 3.1 mph 6.9 mph 78% 0 in
09:24 54.9 °F 48.2 °F 30 in SE 4.2 mph 7.4 mph 78% 0 in
09:29 55 °F 48.4 °F 30 in SSE 4.7 mph 7.6 mph 78% 0 in
09:34 55.4 °F 48 °F 30 in SSE 5 mph 9.2 mph 76.4% 0 in
09:39 55.9 °F 48.2 °F 30 in Sur 5.2 mph 9 mph 75.5% 0 in
09:44 56.5 °F 48.4 °F 30 in Sur 5.2 mph 7 mph 74.1% 0 in
09:49 57 °F 48.4 °F 30 in SSE 5.2 mph 7 mph 73.1% 0 in
09:54 57.6 °F 48.7 °F 30 in SSE 3.8 mph 6.2 mph 72.3% 0 in
09:59 58.1 °F 48.7 °F 30 in SSO 3.1 mph 6.9 mph 71.1% 0 in
10:04 58.6 °F 48.6 °F 30 in SSO 3.7 mph 8.1 mph 69.4% 0 in
10:09 59.2 °F 48.7 °F 30 in SSO 4 mph 8 mph 68.4% 0 in
10:14 59.5 °F 48.6 °F 30 in Sur 4.5 mph 8.1 mph 67.2% 0 in
10:19 59.9 °F 48.7 °F 30 in SSE 4.7 mph 8 mph 66.8% 0 in
10:24 60.1 °F 48.7 °F 30 in SSE 5 mph 8.1 mph 66% 0 in
10:29 60.4 °F 49.1 °F 30 in Sur 5.2 mph 8 mph 66.4% 0 in
10:34 60.8 °F 49.3 °F 30 in Sur 4.1 mph 6.9 mph 65.6% 0 in
10:39 61 °F 49.1 °F 30 in Sur 3.6 mph 7 mph 65% 0 in
10:44 61.3 °F 49.1 °F 30 in Sur 3.6 mph 7 mph 64.4% 0 in
10:49 61.5 °F 49.1 °F 30 in Sur 3.6 mph 6.9 mph 64% 0 in
10:54 61.9 °F 49.5 °F 30 in SSE 3.9 mph 7 mph 64% 0 in
10:59 62.1 °F 49.3 °F 30 in Sur 4 mph 6 mph 63% 0 in
11:04 62.4 °F 49.6 °F 30 in Sur 2.6 mph 6.2 mph 62.9% 0 in
11:09 63 °F 49.6 °F 30 in Sur 2 mph 9.2 mph 61.9% 0 in
11:14 63 °F 49.3 °F 30 in OSO 3 mph 9 mph 60.9% 0 in
11:19 63.1 °F 49.1 °F 30 in OSO 3.6 mph 8.1 mph 60% 0 in
11:24 63.5 °F 49.3 °F 30 in Oeste 3.2 mph 13 mph 59.9% 0 in
11:29 63.9 °F 49.1 °F 30 in Oeste 3.1 mph 13 mph 59% 0 in
11:34 64 °F 48.9 °F 30 in Oeste 4.2 mph 10.4 mph 58% 0 in
11:39 64.2 °F 48.6 °F 30 in Oeste 4.7 mph 16.3 mph 56.9% 0 in
11:44 64.2 °F 48.4 °F 30 in Oeste 6.6 mph 17.5 mph 56.3% 0 in
11:49 64.4 °F 48.4 °F 30 in ONO 7.6 mph 17 mph 56% 0 in
11:54 64.8 °F 48.6 °F 30 in ONO 8 mph 19.2 mph 55.8% 0 in
11:59 64.4 °F 47.8 °F 30 in ONO 8.1 mph 23.5 mph 55% 0 in
12:04 64.2 °F 48 °F 30 in ONO 9.9 mph 23 mph 55.6% 0 in
12:09 64 °F 48 °F 30 in ONO 10.7 mph 17.3 mph 56.1% 0 in
12:14 64.4 °F 48.6 °F 30 in Oeste 7.8 mph 17 mph 56.2% 0 in
12:19 64.9 °F 48.2 °F 30 in ONO 6.4 mph 18.4 mph 54.7% 0 in
12:24 65.5 °F 48.4 °F 30 in Oeste 8.6 mph 18 mph 54.2% 0 in
12:29 65.8 °F 48.6 °F 30 in Oeste 9.7 mph 19 mph 53.7% 0 in
12:34 65.7 °F 48.4 °F 30 in ONO 9.9 mph 19 mph 53.4% 0 in
12:39 65.7 °F 48.6 °F 30 in ONO 10 mph 18 mph 54% 0 in
12:44 65.5 °F 48.7 °F 30 in ONO 9.1 mph 17 mph 54.9% 0 in
12:49 64.9 °F 48.9 °F 30 in ONO 8.7 mph 14 mph 55.8% 0 in
12:54 64.8 °F 48.9 °F 30 in ONO 8.6 mph 15.2 mph 56.3% 0 in
12:59 64.9 °F 48.9 °F 30 in ONO 8.5 mph 15 mph 56% 0 in
13:04 65.1 °F 48.6 °F 30 in ONO 8.2 mph 15 mph 55.1% 0 in
13:09 65.1 °F 48.2 °F 30 in ONO 8.1 mph 15 mph 54.4% 0 in
13:14 65.3 °F 48.4 °F 30 in NO 8.8 mph 15 mph 54.1% 0 in
13:19 65.7 °F 48.2 °F 30 in ONO 9.2 mph 13 mph 53.4% 0 in
13:24 65.5 °F 48 °F 30 in Oeste 8.1 mph 13.8 mph 53.1% 0 in
13:29 65.5 °F 47.8 °F 30 in Oeste 7.6 mph 14 mph 53% 0 in
13:34 65.5 °F 47.8 °F 30 in Oeste 7.5 mph 13.8 mph 53% 0 in
13:39 65.5 °F 48 °F 30 in ONO 7.4 mph 14 mph 53.2% 0 in
13:44 65.7 °F 48.6 °F 30 in ONO 6.7 mph 11 mph 54% 0 in
13:49 65.7 °F 48.4 °F 30 in ONO 6.4 mph 13.8 mph 53.6% 0 in
13:54 65.7 °F 48 °F 30 in ONO 6.4 mph 14 mph 52.9% 0 in
13:59 65.8 °F 47.5 °F 30 in ONO 6.4 mph 16.1 mph 51.4% 0 in
14:04 66 °F 47.3 °F 30 in ONO 7.3 mph 16 mph 51% 0 in
14:09 65.8 °F 47.1 °F 30 in ONO 7.6 mph 14 mph 51% 0 in
14:14 65.8 °F 47.7 °F 30 in ONO 8.2 mph 16.1 mph 51.9% 0 in
14:19 65.8 °F 47.3 °F 30 in ONO 8.5 mph 16 mph 51.1% 0 in
14:24 66 °F 46.8 °F 30 in ONO 8.6 mph 18.4 mph 50% 0 in
14:29 66 °F 46.9 °F 30 in ONO 8.7 mph 18 mph 50.2% 0 in
14:34 66 °F 46.8 °F 30 in ONO 8.6 mph 15 mph 50% 0 in
14:39 66.2 °F 46.8 °F 30 in ONO 8.5 mph 17.3 mph 49.6% 0 in
14:44 66.4 °F 46.9 °F 30 in ONO 8.5 mph 17.5 mph 49.7% 0 in
14:49 66 °F 46.6 °F 30 in ONO 8.5 mph 17 mph 49.4% 0 in
14:54 66.2 °F 46.6 °F 30 in Oeste 8.2 mph 15.2 mph 49.4% 0 in
14:59 66.6 °F 46.8 °F 30 in Oeste 8.1 mph 15 mph 49% 0 in
15:04 66.7 °F 46.8 °F 30 in Oeste 8.5 mph 16.3 mph 48.5% 0 in
15:09 66.9 °F 46.4 °F 30 in Oeste 8.7 mph 16 mph 47.8% 0 in
15:14 67.1 °F 46.4 °F 30 in Oeste 8.7 mph 15 mph 47.1% 0 in
15:19 67.5 °F 46.4 °F 30 in ONO 8.7 mph 15 mph 47% 0 in
15:24 67.3 °F 46.4 °F 30 in Oeste 7.5 mph 14 mph 47% 0 in
15:29 66.9 °F 46.2 °F 30 in ONO 6.9 mph 14 mph 47.3% 0 in
15:34 66.7 °F 46.4 °F 30 in ONO 7.3 mph 13 mph 48% 0 in
15:39 66.7 °F 46.6 °F 30 in Oeste 7.4 mph 13 mph 48.2% 0 in
15:44 67.3 °F 46.6 °F 30 in ONO 6 mph 15.2 mph 47.5% 0 in
15:49 67.6 °F 46.4 °F 30 in ONO 5.2 mph 17.5 mph 46.6% 0 in
15:54 67.6 °F 46 °F 30 in Oeste 7.4 mph 17 mph 46% 0 in
15:59 67.6 °F 45.9 °F 30 in ONO 8.5 mph 16 mph 45.8% 0 in
16:04 67.8 °F 46.6 °F 30 in NO 7.7 mph 11.5 mph 46.5% 0 in
16:09 68.2 °F 47.3 °F 30 in NO 7.4 mph 12 mph 47% 0 in
16:14 68.5 °F 47.1 °F 30 in NO 6.3 mph 11.8 mph 46.6% 0 in
16:19 68.5 °F 46.9 °F 30 in ONO 5.9 mph 12 mph 45.9% 0 in
16:24 68.9 °F 46.6 °F 30 in Oeste 6.1 mph 12.7 mph 45.1% 0 in
16:29 69.3 °F 46.6 °F 30 in Oeste 6.2 mph 16.3 mph 44.5% 0 in
16:34 69.3 °F 46.4 °F 30 in Oeste 6.6 mph 16.1 mph 44.1% 0 in
16:39 69.4 °F 46.6 °F 30 in OSO 6.9 mph 15 mph 44% 0 in
16:44 69.4 °F 46.6 °F 30 in Oeste 7.2 mph 15 mph 44% 0 in
16:49 69.4 °F 46.6 °F 30 in OSO 7.4 mph 12 mph 43.9% 0 in
16:54 69.6 °F 46.2 °F 30 in OSO 6.1 mph 10.4 mph 43.1% 0 in
16:59 69.8 °F 46.4 °F 30 in Oeste 5.4 mph 11.5 mph 43% 0 in
17:04 69.8 °F 46.4 °F 30 in Oeste 6 mph 13.8 mph 43.1% 0 in
17:09 69.4 °F 46.2 °F 30 in ONO 6.2 mph 14.5 mph 43.3% 0 in
17:14 69.4 °F 46.2 °F 30 in ONO 7.5 mph 15 mph 43.2% 0 in
17:19 69.4 °F 46.6 °F 30 in Oeste 8.1 mph 16.1 mph 44% 0 in
17:24 69.6 °F 46.6 °F 30 in Oeste 7.3 mph 16 mph 43.7% 0 in
17:29 69.6 °F 45.5 °F 30 in ONO 6.9 mph 19 mph 42% 0 in
17:34 69.8 °F 45.3 °F 30 in Oeste 8.8 mph 19 mph 41.5% 0 in
17:39 69.8 °F 45.5 °F 30 in ONO 9.7 mph 16 mph 41.7% 0 in
17:44 69.6 °F 45.7 °F 30 in ONO 8.9 mph 15 mph 42.3% 0 in
17:49 69.6 °F 45.9 °F 30 in NO 8.5 mph 15 mph 42.7% 0 in
17:54 69.6 °F 46 °F 30.1 in NO 7.8 mph 15 mph 42.8% 0 in
17:59 69.6 °F 46.2 °F 30.1 in NO 7.4 mph 14 mph 43.2% 0 in
18:04 69.6 °F 46.2 °F 30.1 in NO 5.8 mph 9.7 mph 43.2% 0 in
18:09 69.6 °F 46.2 °F 30.1 in NO 5.2 mph 10.4 mph 43% 0 in
18:14 69.8 °F 46.8 °F 30.1 in NNO 5.3 mph 10 mph 43.9% 0 in
18:19 69.8 °F 46.9 °F 30.1 in NO 5.4 mph 7 mph 44% 0 in
18:24 69.8 °F 47.1 °F 30.1 in NNO 3.9 mph 7.6 mph 44.3% 0 in
18:29 69.8 °F 46.6 °F 30.1 in NO 3.1 mph 8.1 mph 43.7% 0 in
18:34 69.6 °F 46.6 °F 30.1 in NO 3.7 mph 7 mph 43.8% 0 in
18:39 69.6 °F 46.2 °F 30.1 in ONO 4 mph 11.8 mph 43.2% 0 in
18:44 69.4 °F 46 °F 30.1 in ONO 4.8 mph 12 mph 42.9% 0 in
18:49 69.4 °F 46 °F 30.1 in ONO 5.2 mph 9 mph 43% 0 in
18:54 69.4 °F 46 °F 30.1 in ONO 4.4 mph 5.9 mph 43% 0 in
18:59 69.3 °F 45.9 °F 30.1 in ONO 4 mph 6.2 mph 43.1% 0 in
19:04 69.1 °F 46 °F 30.1 in ONO 4 mph 6.4 mph 43.5% 0 in
19:09 69.1 °F 46 °F 30.1 in ONO 4 mph 7 mph 43.8% 0 in
19:14 68.7 °F 45.5 °F 30.1 in ONO 4.2 mph 10 mph 43.4% 0 in
19:19 68.7 °F 45.3 °F 30.1 in Oeste 4.3 mph 10.4 mph 43.1% 0 in
19:24 68.5 °F 45.7 °F 30.1 in ONO 4.6 mph 11.4 mph 43.7% 0 in
19:29 68.5 °F 45.1 °F 30.1 in ONO 4.7 mph 12 mph 43% 0 in
19:34 68.5 °F 45.3 °F 30.1 in ONO 5.5 mph 9 mph 43.2% 0 in
19:39 68.4 °F 45 °F 30.1 in ONO 5.9 mph 11.5 mph 43% 0 in
19:44 68.4 °F 45 °F 30.1 in ONO 6.1 mph 13.7 mph 43% 0 in
19:49 68.4 °F 45 °F 30.1 in ONO 6.2 mph 14 mph 43% 0 in
19:54 68.4 °F 45 °F 30.1 in ONO 6.6 mph 14 mph 43% 0 in
19:59 68.2 °F 44.8 °F 30.1 in ONO 6.9 mph 10 mph 43% 0 in
20:04 68 °F 45.3 °F 30.1 in ONO 5.7 mph 8 mph 43.9% 0 in
20:09 67.6 °F 45.3 °F 30.1 in Oeste 5.2 mph 6 mph 44.6% 0 in
20:14 67.5 °F 45.3 °F 30.1 in SSO 3.4 mph 5 mph 44.9% 0 in
20:19 67.5 °F 45.5 °F 30.1 in SSO 2.4 mph 5 mph 45.3% 0 in
20:24 67.5 °F 45.9 °F 30.1 in SSO 2.4 mph 5 mph 46% 0 in
20:29 67.5 °F 45.9 °F 30.1 in SSO 2.4 mph 5 mph 46% 0 in
20:34 67.3 °F 45.9 °F 30.1 in SSO 2.1 mph 6.9 mph 46.1% 0 in
20:39 67.3 °F 46.4 °F 30.1 in OSO 2 mph 7 mph 47% 0 in
20:44 66.9 °F 46.2 °F 30.1 in OSO 3.1 mph 6 mph 47.2% 0 in
20:49 66.7 °F 46.4 °F 30.1 in OSO 3.6 mph 5 mph 48% 0 in
20:54 66.4 °F 46.4 °F 30.1 in SO 3.1 mph 5.9 mph 48.7% 0 in
20:59 66 °F 46.2 °F 30.1 in SO 2.9 mph 6 mph 49% 0 in
21:04 66 °F 46.2 °F 30.1 in SSO 3.4 mph 5.9 mph 49% 0 in
21:09 66 °F 46 °F 30.1 in SO 3.6 mph 6.2 mph 48.6% 0 in
21:14 66.2 °F 46.6 °F 30.1 in SO 3.9 mph 6.2 mph 49% 0 in
21:19 66 °F 46 °F 30.1 in SO 4 mph 7.4 mph 48.4% 0 in
21:24 66.2 °F 46.4 °F 30.1 in OSO 4.5 mph 7 mph 48.9% 0 in
21:29 66 °F 46.4 °F 30.1 in OSO 4.7 mph 7 mph 49.2% 0 in
21:34 65.8 °F 46.6 °F 30.1 in OSO 4.2 mph 6 mph 50% 0 in
21:39 65.7 °F 46.6 °F 30.1 in OSO 4 mph 9.2 mph 50% 0 in
21:44 65.7 °F 46.8 °F 30.1 in SO 4.2 mph 9 mph 50.6% 0 in
21:49 65.5 °F 47.3 °F 30.1 in SSE 4.3 mph 6.2 mph 51.8% 0 in
21:54 64.6 °F 48 °F 30.1 in SE 4.1 mph 8.1 mph 55.2% 0 in
21:56 63.3 °F 48 °F 30.1 in SE 4 mph 8.1 mph 57.3% 0 in
22:04 62.4 °F 47.5 °F 30.1 in SE 5.4 mph 8.1 mph 58% 0 in
22:09 62.6 °F 47.5 °F 30.1 in SSE 5.4 mph 8.1 mph 58% 0 in
22:14 62.8 °F 47.3 °F 30.1 in SSE 4.5 mph 7.4 mph 57% 0 in
22:19 63 °F 47.3 °F 30.1 in Sur 4.3 mph 7 mph 56.6% 0 in
22:24 63.1 °F 47.1 °F 30.1 in SSO 4.6 mph 8.1 mph 56% 0 in
22:29 63.3 °F 47.1 °F 30.1 in SSO 4.7 mph 8 mph 55.6% 0 in
22:34 63.9 °F 47.1 °F 30.1 in OSO 4.7 mph 7.4 mph 54.5% 0 in
22:39 64.2 °F 47.1 °F 30.1 in OSO 4.7 mph 7.6 mph 54% 0 in
22:44 64.2 °F 47.1 °F 30.1 in Oeste 4.7 mph 8.1 mph 54% 0 in
22:49 64 °F 47.3 °F 30.1 in Oeste 4.7 mph 13.5 mph 54.9% 0 in
22:54 64 °F 46.9 °F 30.1 in Oeste 5.6 mph 14 mph 53.7% 0 in
22:59 64.6 °F 46.8 °F 30.1 in Oeste 5.9 mph 14 mph 52.3% 0 in
23:04 64.9 °F 46.9 °F 30.1 in Oeste 6.2 mph 12 mph 52% 0 in
23:09 64.9 °F 46.9 °F 30.1 in Oeste 6.2 mph 9.7 mph 52% 0 in
23:14 64.8 °F 46.8 °F 30.1 in Oeste 5.5 mph 10 mph 52% 0 in
23:19 64.8 °F 46.9 °F 30.1 in SO 5.2 mph 8 mph 52.4% 0 in
23:24 64.6 °F 47.1 °F 30.2 in SO 4.3 mph 7 mph 53% 0 in
23:29 64.4 °F 46.9 °F 30.2 in SO 4 mph 8.1 mph 53% 0 in
23:34 64.4 °F 46.9 °F 30.2 in SO 4.5 mph 9.2 mph 53% 0 in
23:39 64.6 °F 47.1 °F 30.2 in SSO 4.7 mph 9 mph 53% 0 in
23:44 64.6 °F 47.1 °F 30.2 in SSO 4.4 mph 6.9 mph 53% 0 in
23:49 64.2 °F 46.8 °F 30.2 in SSO 4.3 mph 8.1 mph 53% 0 in
23:54 64.2 °F 46.8 °F 30.2 in OSO 4.6 mph 8.5 mph 53% 0 in
23:59 64.2 °F 46.8 °F 30.2 in OSO 4.7 mph 9.2 mph 53% 0 in
Murcia-Puente Tocinos, España
Compliments of Weather Underground - 3.5 mb

La estación de MeteoMurcia.com, publica sus datos en los siguientes proyectos:

Weather Underground PWS IMURCIAP2 Meteoclimatic www.awekas.at

W3Counter
Web Analytics